createdAt,value
2022-10-11T00:01:08.666Z,0.20
2022-10-11T00:03:36.473Z,0.30
2022-10-11T00:06:06.068Z,0.30
2022-10-11T00:08:34.842Z,0.20
2022-10-11T00:11:06.687Z,0.30
2022-10-11T00:13:35.202Z,0.20
2022-10-11T00:16:12.674Z,0.30
2022-10-11T00:18:40.826Z,0.30
2022-10-11T00:21:16.978Z,0.20
2022-10-11T00:23:48.298Z,0.27
2022-10-11T00:26:24.010Z,0.40
2022-10-11T00:28:53.454Z,0.30
2022-10-11T00:31:48.713Z,0.27
2022-10-11T00:34:26.957Z,0.30
2022-10-11T00:36:55.772Z,0.20
2022-10-11T00:39:23.804Z,0.20
2022-10-11T00:41:52.721Z,0.30
2022-10-11T00:44:23.462Z,0.40
2022-10-11T00:46:56.676Z,0.20
2022-10-11T00:49:34.019Z,0.30
2022-10-11T00:52:04.592Z,0.30
2022-10-11T00:54:37.718Z,0.30
2022-10-11T00:57:09.063Z,0.30
2022-10-11T00:59:41.148Z,0.30
2022-10-11T01:02:12.393Z,0.30
2022-10-11T01:04:41.057Z,0.30
2022-10-11T01:07:12.892Z,0.30
2022-10-11T01:09:40.851Z,0.30
2022-10-11T01:12:17.746Z,0.20
2022-10-11T01:15:15.156Z,0.40
2022-10-11T01:17:51.610Z,0.30
2022-10-11T01:20:42.627Z,0.30
2022-10-11T01:23:32.812Z,0.30
2022-10-11T01:26:33.531Z,0.30
2022-10-11T01:29:13.547Z,0.30
2022-10-11T01:31:52.374Z,0.23
2022-10-11T01:34:28.350Z,0.40
2022-10-11T01:37:03.426Z,0.30
2022-10-11T01:39:37.357Z,0.33
2022-10-11T01:42:09.849Z,0.20
2022-10-11T01:44:42.746Z,0.30
2022-10-11T01:47:11.881Z,0.30
2022-10-11T01:49:39.621Z,0.30
2022-10-11T01:52:08.938Z,0.30
2022-10-11T01:55:14.337Z,0.30
2022-10-11T01:58:02.315Z,0.30
2022-10-11T02:00:42.197Z,0.30
2022-10-11T02:03:22.172Z,0.30
2022-10-11T02:05:55.885Z,0.30
2022-10-11T02:08:30.712Z,0.30
2022-10-11T02:11:05.763Z,0.30
2022-10-11T02:13:41.147Z,0.40
2022-10-11T02:16:19.037Z,0.37
2022-10-11T02:18:52.572Z,0.30
2022-10-11T02:21:24.563Z,0.20
2022-10-11T02:24:01.151Z,0.40
2022-10-11T02:26:34.603Z,0.40
2022-10-11T02:29:08.998Z,0.30
2022-10-11T02:31:38.555Z,0.40
2022-10-11T02:34:13.859Z,0.37
2022-10-11T02:36:51.836Z,0.30
2022-10-11T02:39:26.964Z,0.30
2022-10-11T02:41:58.676Z,0.40
2022-10-11T02:44:33.478Z,0.40
2022-10-11T02:47:02.496Z,0.33
2022-10-11T02:49:33.012Z,0.30
2022-10-11T02:52:01.036Z,0.30
2022-10-11T02:54:28.989Z,0.30
2022-10-11T02:56:58.198Z,0.37
2022-10-11T02:59:26.254Z,0.30
2022-10-11T03:01:56.649Z,0.50
2022-10-11T03:04:24.909Z,0.40
2022-10-11T03:06:54.223Z,0.40
2022-10-11T03:09:22.436Z,0.40
2022-10-11T03:11:50.500Z,0.40
2022-10-11T03:14:18.267Z,0.33
2022-10-11T03:16:46.183Z,0.40
2022-10-11T03:19:18.396Z,0.30
2022-10-11T03:21:47.251Z,0.30
2022-10-11T03:24:17.015Z,0.40
2022-10-11T03:26:47.005Z,0.40
2022-10-11T03:29:15.023Z,0.30
2022-10-11T03:31:42.856Z,0.40
2022-10-11T03:34:10.711Z,0.30
2022-10-11T03:36:38.544Z,0.30
2022-10-11T03:39:06.800Z,0.40
2022-10-11T03:41:37.027Z,0.40
2022-10-11T03:44:05.105Z,0.30
2022-10-11T03:46:32.878Z,0.33
2022-10-11T03:49:00.692Z,0.30
2022-10-11T03:51:29.132Z,0.30
2022-10-11T03:53:57.059Z,0.30
2022-10-11T03:56:24.925Z,0.40
2022-10-11T03:58:54.412Z,0.40
2022-10-11T04:01:22.396Z,0.30
2022-10-11T04:03:50.396Z,0.40
2022-10-11T04:06:18.238Z,0.40
2022-10-11T04:08:46.121Z,0.30
2022-10-11T04:11:13.994Z,0.30
2022-10-11T04:13:41.858Z,0.23
2022-10-11T04:16:11.054Z,0.40
2022-10-11T04:18:39.044Z,0.40
2022-10-11T04:21:07.496Z,0.40
2022-10-11T04:23:35.641Z,0.40
2022-10-11T04:26:06.890Z,0.40
2022-10-11T04:28:36.128Z,0.40
2022-10-11T04:31:05.139Z,0.30
2022-10-11T04:33:34.420Z,0.40
2022-10-11T04:36:02.636Z,0.40
2022-10-11T04:38:30.832Z,0.40
2022-10-11T04:41:07.145Z,0.33
2022-10-11T04:43:35.118Z,0.37
2022-10-11T04:46:02.987Z,0.40
2022-10-11T04:48:31.532Z,0.43
2022-10-11T04:51:00.671Z,0.30
2022-10-11T04:53:30.107Z,0.50
2022-10-11T04:56:01.309Z,0.50
2022-10-11T04:58:30.788Z,0.40
2022-10-11T05:00:59.303Z,0.37
2022-10-11T05:03:27.863Z,0.30
2022-10-11T05:05:55.719Z,0.30
2022-10-11T05:08:25.378Z,0.30
2022-10-11T05:10:57.778Z,0.40
2022-10-11T05:13:26.316Z,0.30
2022-10-11T05:15:54.555Z,0.30
2022-10-11T05:18:24.195Z,0.40
2022-10-11T05:21:15.939Z,0.40
2022-10-11T05:23:46.490Z,0.30
2022-10-11T05:26:14.584Z,0.30
2022-10-11T05:28:42.563Z,0.30
2022-10-11T05:31:10.524Z,0.30
2022-10-11T05:33:38.340Z,0.30
2022-10-11T05:36:08.527Z,0.30
2022-10-11T05:38:37.106Z,0.30
2022-10-11T05:41:09.556Z,0.37
2022-10-11T05:43:37.575Z,0.30
2022-10-11T05:46:05.952Z,0.30
2022-10-11T05:48:34.386Z,0.30
2022-10-11T05:51:03.303Z,0.30
2022-10-11T05:53:31.532Z,0.20
2022-10-11T05:55:59.740Z,0.20
2022-10-11T05:58:31.556Z,0.30
2022-10-11T06:01:00.931Z,0.20
2022-10-11T06:03:29.215Z,0.20
2022-10-11T06:05:57.465Z,0.30
2022-10-11T06:08:25.445Z,0.30
2022-10-11T06:10:55.562Z,0.30
2022-10-11T06:13:23.453Z,0.30
2022-10-11T06:15:52.600Z,0.30
2022-10-11T06:18:20.975Z,0.30
2022-10-11T06:20:51.971Z,0.33
2022-10-11T06:23:20.194Z,0.33
2022-10-11T06:25:57.243Z,0.30
2022-10-11T06:28:25.190Z,0.30
2022-10-11T06:30:54.485Z,0.30
2022-10-11T06:33:22.905Z,0.30
2022-10-11T06:35:51.003Z,0.30
2022-10-11T06:38:19.084Z,0.30
2022-10-11T06:40:46.931Z,0.33
2022-10-11T06:43:14.846Z,0.30
2022-10-11T06:45:42.725Z,0.30
2022-10-11T06:48:13.358Z,0.30
2022-10-11T06:50:58.998Z,0.30
2022-10-11T06:53:28.448Z,0.30
2022-10-11T06:56:03.372Z,0.20
2022-10-11T06:58:31.492Z,0.30
2022-10-11T07:01:02.819Z,0.30
2022-10-11T07:03:32.394Z,0.30
2022-10-11T07:06:04.858Z,0.20
2022-10-11T07:08:33.034Z,0.20
2022-10-11T07:11:01.912Z,0.30
2022-10-11T07:13:30.334Z,0.20
2022-10-11T07:15:58.304Z,0.23
2022-10-11T07:18:26.071Z,0.30
2022-10-11T07:20:56.052Z,0.27
2022-10-11T07:23:25.249Z,0.30
2022-10-11T07:25:55.081Z,0.20
2022-10-11T07:28:23.345Z,0.30
2022-10-11T07:30:51.890Z,0.23
2022-10-11T07:33:19.884Z,0.20
2022-10-11T07:35:48.697Z,0.30
2022-10-11T07:38:18.666Z,0.20
2022-10-11T07:40:47.456Z,0.20
2022-10-11T07:43:15.647Z,0.20
2022-10-11T07:45:45.445Z,0.20
2022-10-11T07:48:13.426Z,0.20
2022-10-11T07:50:41.198Z,0.20
2022-10-11T07:53:09.973Z,0.20
2022-10-11T07:55:42.482Z,0.20
2022-10-11T07:58:11.055Z,0.20
2022-10-11T08:00:39.551Z,0.20
2022-10-11T08:03:08.290Z,0.20
2022-10-11T08:05:38.646Z,0.20
2022-10-11T08:08:07.020Z,0.20
2022-10-11T08:10:40.239Z,0.20
2022-10-11T08:13:09.567Z,0.20
2022-10-11T08:15:37.813Z,0.20
2022-10-11T08:18:05.903Z,0.20
2022-10-11T08:20:34.004Z,0.20
2022-10-11T08:23:01.947Z,0.20
2022-10-11T08:25:30.357Z,0.20
2022-10-11T08:27:58.256Z,0.20
2022-10-11T08:30:27.706Z,0.20
2022-10-11T08:32:55.624Z,0.20
2022-10-11T08:35:23.671Z,0.20
2022-10-11T08:37:51.572Z,0.20
2022-10-11T08:40:22.514Z,0.20
2022-10-11T08:42:59.760Z,0.20
2022-10-11T08:45:36.658Z,0.20
2022-10-11T08:48:14.291Z,0.20
2022-10-11T08:50:45.499Z,0.20
2022-10-11T08:53:23.115Z,0.20
2022-10-11T08:55:52.396Z,0.20
2022-10-11T08:58:24.272Z,0.20
2022-10-11T09:00:57.692Z,0.20
2022-10-11T09:03:32.255Z,0.20
2022-10-11T09:06:09.679Z,0.20
2022-10-11T09:08:58.818Z,0.20
2022-10-11T09:11:44.707Z,0.20
2022-10-11T09:14:41.280Z,0.20
2022-10-11T09:17:21.434Z,0.20
2022-10-11T09:20:04.682Z,0.20
2022-10-11T09:22:45.483Z,0.20
2022-10-11T09:25:24.224Z,0.20
2022-10-11T09:28:04.219Z,0.20
2022-10-11T09:30:33.189Z,0.20
2022-10-11T09:33:13.342Z,0.20
2022-10-11T09:35:45.225Z,0.20
2022-10-11T09:38:22.308Z,0.20
2022-10-11T09:41:01.536Z,0.20
2022-10-11T09:43:29.592Z,0.20
2022-10-11T09:45:57.597Z,0.20
2022-10-11T09:48:30.042Z,0.20
2022-10-11T09:51:05.800Z,0.20
2022-10-11T09:53:52.132Z,0.20
2022-10-11T09:56:20.038Z,0.20
2022-10-11T09:58:48.045Z,0.20
2022-10-11T10:01:25.431Z,0.20
2022-10-11T10:04:10.936Z,0.20
2022-10-11T10:06:40.118Z,0.20
2022-10-11T10:09:30.362Z,0.20
2022-10-11T10:11:59.192Z,0.20
2022-10-11T10:14:30.718Z,0.20
2022-10-11T10:17:06.542Z,0.20
2022-10-11T10:19:45.313Z,0.20
2022-10-11T10:22:20.113Z,0.20
2022-10-11T10:24:49.974Z,0.20
2022-10-11T10:27:22.136Z,0.20
2022-10-11T10:30:15.838Z,0.20
2022-10-11T10:32:49.795Z,0.20
2022-10-11T10:35:33.488Z,0.20
2022-10-11T10:38:09.297Z,0.20
2022-10-11T10:40:42.137Z,0.20
2022-10-11T10:43:16.801Z,0.20
2022-10-11T10:46:16.748Z,0.20
2022-10-11T10:51:52.721Z,0.20
2022-10-11T10:54:35.690Z,0.20
2022-10-11T10:57:11.181Z,0.20
2022-10-11T10:59:59.945Z,0.20
2022-10-11T11:02:40.809Z,0.20
2022-10-11T11:05:22.160Z,0.20
2022-10-11T11:07:56.108Z,0.20
2022-10-11T11:10:34.935Z,0.20
2022-10-11T11:13:18.995Z,0.20
2022-10-11T11:15:53.755Z,0.20
2022-10-11T11:18:29.995Z,0.20
2022-10-11T11:21:20.203Z,0.20
2022-10-11T11:24:02.148Z,0.20
2022-10-11T11:26:38.686Z,0.20
2022-10-11T11:29:19.735Z,0.20
2022-10-11T11:32:01.784Z,0.20
2022-10-11T11:34:34.315Z,0.20
2022-10-11T11:37:06.674Z,0.20
2022-10-11T11:39:40.157Z,0.20
2022-10-11T11:42:14.865Z,0.20
2022-10-11T11:44:46.781Z,0.20
2022-10-11T11:47:20.533Z,0.20
2022-10-11T11:49:52.205Z,0.20
2022-10-11T11:52:26.838Z,0.20
2022-10-11T11:55:05.982Z,0.20
2022-10-11T11:57:49.477Z,0.20
2022-10-11T12:00:20.683Z,0.20
2022-10-11T12:02:53.150Z,0.20
2022-10-11T12:05:24.299Z,0.20
2022-10-11T12:07:59.582Z,0.20
2022-10-11T12:10:36.685Z,0.20
2022-10-11T12:13:18.055Z,0.20
2022-10-11T12:16:10.795Z,0.20
2022-10-11T12:18:53.260Z,0.20
2022-10-11T12:21:30.610Z,0.20
2022-10-11T12:23:59.916Z,0.20
2022-10-11T12:26:40.711Z,0.20
2022-10-11T12:29:43.650Z,0.20
2022-10-11T12:32:51.061Z,0.20
2022-10-11T12:35:55.429Z,0.20
2022-10-11T12:38:24.531Z,0.20
2022-10-11T12:40:54.710Z,0.20
2022-10-11T12:43:33.602Z,0.20
2022-10-11T12:46:39.385Z,0.20
2022-10-11T12:49:36.220Z,0.20
2022-10-11T12:52:06.919Z,0.20
2022-10-11T12:55:04.071Z,0.20
2022-10-11T12:58:16.874Z,0.20
2022-10-11T13:01:17.869Z,0.20
2022-10-11T13:03:50.921Z,0.20
2022-10-11T13:06:22.048Z,0.20
2022-10-11T13:08:55.050Z,0.20
2022-10-11T13:11:26.359Z,0.20
2022-10-11T13:13:56.975Z,0.20
2022-10-11T13:16:28.229Z,0.20
2022-10-11T13:18:59.567Z,0.20
2022-10-11T13:21:30.949Z,0.20
2022-10-11T13:24:01.382Z,0.20
2022-10-11T13:26:31.699Z,0.20
2022-10-11T13:29:01.216Z,0.20
2022-10-11T13:31:33.014Z,0.20
2022-10-11T13:34:01.112Z,0.20
2022-10-11T13:36:31.527Z,0.20
2022-10-11T13:39:01.792Z,0.20
2022-10-11T13:41:31.702Z,0.20
2022-10-11T13:44:03.444Z,0.20
2022-10-11T13:46:41.082Z,0.20
2022-10-11T13:49:29.096Z,0.20
2022-10-11T13:52:02.415Z,0.20
2022-10-11T13:54:55.465Z,0.20
2022-10-11T13:57:25.284Z,0.20
2022-10-11T13:59:53.173Z,0.20
2022-10-11T14:02:24.217Z,0.20
2022-10-11T14:04:52.154Z,0.20
2022-10-11T14:07:27.191Z,0.20
2022-10-11T14:09:55.914Z,0.20
2022-10-11T14:12:38.131Z,0.20
2022-10-11T14:15:07.798Z,0.20
2022-10-11T14:17:41.823Z,0.20
2022-10-11T14:20:18.235Z,0.20
2022-10-11T14:22:46.122Z,0.20
2022-10-11T14:25:14.327Z,0.20
2022-10-11T14:27:42.705Z,0.20
2022-10-11T14:30:31.997Z,0.20
2022-10-11T14:33:03.357Z,0.20
2022-10-11T14:35:33.281Z,0.20
2022-10-11T14:38:01.349Z,0.20
2022-10-11T14:40:31.558Z,0.20
2022-10-11T14:42:59.915Z,0.20
2022-10-11T14:45:27.857Z,0.20
2022-10-11T14:47:57.058Z,0.20
2022-10-11T14:50:36.433Z,0.20
2022-10-11T14:53:05.886Z,0.20
2022-10-11T14:55:34.144Z,0.20
2022-10-11T14:58:02.294Z,0.20
2022-10-11T15:00:32.390Z,0.20
2022-10-11T15:03:01.857Z,0.20
2022-10-11T15:05:34.611Z,0.20
2022-10-11T15:08:08.971Z,0.20
2022-10-11T15:10:39.216Z,0.20
2022-10-11T15:13:12.030Z,0.20
2022-10-11T15:15:45.749Z,0.20
2022-10-11T15:18:18.747Z,0.20
2022-10-11T15:24:01.752Z,0.20
2022-10-11T15:26:33.047Z,0.20
2022-10-11T15:29:01.232Z,0.20
2022-10-11T15:31:29.256Z,0.20
2022-10-11T15:33:59.593Z,0.20
2022-10-11T15:36:28.931Z,0.20
2022-10-11T15:38:58.183Z,0.20
2022-10-11T15:41:26.131Z,0.20
2022-10-11T15:43:54.647Z,0.20
2022-10-11T15:46:23.919Z,0.20
2022-10-11T15:48:54.345Z,0.20
2022-10-11T15:51:22.354Z,0.20
2022-10-11T15:53:50.639Z,0.20
2022-10-11T15:56:20.048Z,0.20
2022-10-11T15:58:48.166Z,0.20
2022-10-11T16:01:18.769Z,0.20
2022-10-11T16:03:47.260Z,0.20
2022-10-11T16:06:15.473Z,0.20
2022-10-11T16:08:44.624Z,0.20
2022-10-11T16:11:15.682Z,0.20
2022-10-11T16:13:46.212Z,0.20
2022-10-11T16:16:14.295Z,0.20
2022-10-11T16:18:47.473Z,0.20
2022-10-11T16:21:16.513Z,0.20
2022-10-11T16:23:45.209Z,0.23
2022-10-11T16:26:16.369Z,0.20
2022-10-11T16:28:49.903Z,0.20
2022-10-11T16:31:20.931Z,0.30
2022-10-11T16:33:50.117Z,0.27
2022-10-11T16:36:40.654Z,0.20
2022-10-11T16:39:12.011Z,0.30
2022-10-11T16:41:40.242Z,0.30
2022-10-11T16:44:13.403Z,0.20
2022-10-11T16:46:41.570Z,0.20
2022-10-11T16:49:09.504Z,0.20
2022-10-11T16:51:37.503Z,0.20
2022-10-11T16:54:05.919Z,0.20
2022-10-11T16:56:38.864Z,0.20
2022-10-11T16:59:09.297Z,0.20
2022-10-11T17:01:37.732Z,0.20
2022-10-11T17:04:06.065Z,0.20
2022-10-11T17:06:34.177Z,0.20
2022-10-11T17:09:02.197Z,0.20
2022-10-11T17:11:30.291Z,0.20
2022-10-11T17:13:58.512Z,0.20
2022-10-11T17:16:28.159Z,0.20
2022-10-11T17:18:56.087Z,0.20
2022-10-11T17:21:23.962Z,0.20
2022-10-11T17:23:51.832Z,0.20
2022-10-11T17:26:23.244Z,0.20
2022-10-11T17:28:51.232Z,0.20
2022-10-11T17:31:19.346Z,0.20
2022-10-11T17:33:50.505Z,0.20
2022-10-11T17:36:22.544Z,0.20
2022-10-11T17:38:51.712Z,0.20
2022-10-11T17:41:20.446Z,0.20
2022-10-11T17:43:48.854Z,0.20
2022-10-11T17:46:18.173Z,0.20
2022-10-11T17:48:46.247Z,0.20
2022-10-11T17:51:17.450Z,0.20
2022-10-11T17:53:48.194Z,0.20
2022-10-11T17:56:18.024Z,0.20
2022-10-11T17:58:47.061Z,0.20
2022-10-11T18:01:17.013Z,0.20
2022-10-11T18:03:52.694Z,0.20
2022-10-11T18:06:22.186Z,0.20
2022-10-11T18:08:50.235Z,0.20
2022-10-11T18:11:20.659Z,0.20
2022-10-11T18:13:50.037Z,0.20
2022-10-11T18:16:20.645Z,0.30
2022-10-11T18:18:48.728Z,0.20
2022-10-11T18:21:20.186Z,0.20
2022-10-11T18:23:52.795Z,0.20
2022-10-11T18:26:26.686Z,0.20
2022-10-11T18:28:58.429Z,0.20
2022-10-11T18:31:28.032Z,0.23
2022-10-11T18:33:56.539Z,0.20
2022-10-11T18:36:29.938Z,0.20
2022-10-11T18:39:01.580Z,0.20
2022-10-11T18:41:33.977Z,0.20
2022-10-11T18:44:04.287Z,0.20
2022-10-11T18:46:32.424Z,0.20
2022-10-11T18:49:02.063Z,0.30
2022-10-11T18:51:32.147Z,0.23
2022-10-11T18:54:02.202Z,0.20
2022-10-11T18:56:31.884Z,0.20
2022-10-11T18:59:00.754Z,0.20
2022-10-11T19:01:31.170Z,0.20
2022-10-11T19:04:02.477Z,0.30
2022-10-11T19:06:33.522Z,0.20
2022-10-11T19:09:05.583Z,0.20
2022-10-11T19:11:33.841Z,0.20
2022-10-11T19:14:03.820Z,0.30
2022-10-11T19:16:31.801Z,0.30
2022-10-11T19:18:59.694Z,0.20
2022-10-11T19:21:28.459Z,0.30
2022-10-11T19:23:57.136Z,0.20
2022-10-11T19:26:29.115Z,0.30
2022-10-11T19:28:58.521Z,0.20
2022-10-11T19:31:26.783Z,0.27
2022-10-11T19:33:54.749Z,0.20
2022-10-11T19:36:23.015Z,0.30
2022-10-11T19:38:54.552Z,0.30
2022-10-11T19:41:22.436Z,0.20
2022-10-11T19:43:52.477Z,0.20
2022-10-11T19:46:44.401Z,0.30
2022-10-11T19:49:12.062Z,0.30
2022-10-11T19:51:39.907Z,0.30
2022-10-11T19:54:11.756Z,0.20
2022-10-11T19:56:40.694Z,0.30
2022-10-11T19:59:12.053Z,0.30
2022-10-11T20:01:49.346Z,0.30
2022-10-11T20:04:50.605Z,0.30
2022-10-11T20:07:08.525Z,0.20
2022-10-11T20:09:36.837Z,0.30
2022-10-11T20:12:04.863Z,0.30
2022-10-11T20:14:34.323Z,0.30
2022-10-11T20:17:02.155Z,0.30
2022-10-11T20:19:31.600Z,0.30
2022-10-11T20:22:00.469Z,0.30
2022-10-11T20:24:32.581Z,0.30
2022-10-11T20:27:01.898Z,0.30
2022-10-11T20:29:29.987Z,0.20
2022-10-11T20:31:59.834Z,0.30
2022-10-11T20:34:28.262Z,0.30
2022-10-11T20:36:56.333Z,0.23
2022-10-11T20:39:24.737Z,0.30
2022-10-11T20:41:52.698Z,0.40
2022-10-11T20:44:20.632Z,0.30
2022-10-11T20:46:48.644Z,0.20
2022-10-11T20:49:20.680Z,0.30
2022-10-11T20:51:48.659Z,0.30
2022-10-11T20:54:16.737Z,0.40
2022-10-11T20:56:44.734Z,0.23
2022-10-11T20:59:13.857Z,0.30
2022-10-11T21:01:42.514Z,0.23
2022-10-11T21:04:18.309Z,0.30
2022-10-11T21:06:48.239Z,0.30
2022-10-11T21:09:17.484Z,0.30
2022-10-11T21:11:46.851Z,0.30
2022-10-11T21:14:17.214Z,0.30
2022-10-11T21:16:45.271Z,0.30
2022-10-11T21:19:17.115Z,0.30
2022-10-11T21:21:53.651Z,0.40
2022-10-11T21:24:22.547Z,0.20
2022-10-11T21:27:00.457Z,0.30
2022-10-11T21:29:28.902Z,0.30
2022-10-11T21:31:56.842Z,0.30
2022-10-11T21:34:24.767Z,0.40
2022-10-11T21:36:54.110Z,0.30
2022-10-11T21:39:22.171Z,0.40
2022-10-11T21:41:49.991Z,0.30
2022-10-11T21:44:17.949Z,0.30
2022-10-11T21:47:06.016Z,0.40
2022-10-11T21:49:33.820Z,0.30
2022-10-11T21:52:06.655Z,0.30
2022-10-11T21:54:34.656Z,0.40
2022-10-11T21:57:02.975Z,0.40
2022-10-11T21:59:31.070Z,0.30
2022-10-11T22:02:02.219Z,0.30
2022-10-11T22:04:30.519Z,0.40
2022-10-11T22:06:58.604Z,0.30
2022-10-11T22:09:29.871Z,0.40
2022-10-11T22:11:58.164Z,0.33
2022-10-11T22:14:26.121Z,0.30
2022-10-11T22:16:53.940Z,0.40
2022-10-11T22:19:22.123Z,0.30
2022-10-11T22:21:50.339Z,0.40
2022-10-11T22:24:19.401Z,0.40
2022-10-11T22:26:48.628Z,0.40
2022-10-11T22:29:16.563Z,0.40
2022-10-11T22:31:44.375Z,0.30
2022-10-11T22:34:13.019Z,0.40
2022-10-11T22:36:41.125Z,0.40
2022-10-11T22:39:10.191Z,0.33
2022-10-11T22:41:38.460Z,0.40
2022-10-11T22:44:08.006Z,0.40
2022-10-11T22:46:35.860Z,0.40
2022-10-11T22:49:03.854Z,0.40
2022-10-11T22:51:32.028Z,0.40
2022-10-11T22:54:02.102Z,0.40
2022-10-11T22:56:32.025Z,0.40
2022-10-11T22:59:00.585Z,0.40
2022-10-11T23:01:30.839Z,0.30
2022-10-11T23:03:58.909Z,0.40
2022-10-11T23:06:26.801Z,0.40
2022-10-11T23:08:54.583Z,0.50
2022-10-11T23:11:22.840Z,0.40
2022-10-11T23:13:51.820Z,0.40
2022-10-11T23:16:19.634Z,0.30
2022-10-11T23:18:48.943Z,0.40
2022-10-11T23:21:16.824Z,0.40
2022-10-11T23:23:47.176Z,0.40
2022-10-11T23:26:17.074Z,0.30
2022-10-11T23:28:45.518Z,0.30
2022-10-11T23:31:16.562Z,0.40
2022-10-11T23:33:45.056Z,0.30
2022-10-11T23:36:17.196Z,0.40
2022-10-11T23:38:45.302Z,0.27
2022-10-11T23:41:13.689Z,0.30
2022-10-11T23:43:41.647Z,0.30
2022-10-11T23:46:12.525Z,0.30
2022-10-11T23:48:41.386Z,0.30
2022-10-11T23:51:09.324Z,0.30
2022-10-11T23:53:38.832Z,0.30
2022-10-11T23:56:08.611Z,0.30
2022-10-11T23:58:36.561Z,0.37
